Time;durP1;ratioP1;P1;durP2;ratioP2;P2;SDS_P1;SDS_P2;PMS_P1;PMS_P2;Temp;Humidity;BMP_temperature;BMP_pressure;BME280_temperature;BME280_humidity;BME280_pressure;Samples;Min_cycle;Max_cycle;Signal;HPM_P1;HPM_P2
2021/05/31 00:02:18;;;;;;;6.20;4.60;;;;;;;;;;6240529;28;20120;-80
2021/05/31 00:05:22;;;;;;;7.03;5.22;;;;;;;;;;6219619;28;20517;-81
2021/05/31 00:08:24;;;;;;;5.15;4.30;;;;;;;;;;6217896;28;20138;-81
2021/05/31 00:11:26;;;;;;;6.70;4.28;;;;;;;;;;6241287;28;20041;-78
2021/05/31 00:14:28;;;;;;;6.55;4.88;;;;;;;;;;6240305;28;20038;-81
2021/05/31 00:17:30;;;;;;;6.80;4.47;;;;;;;;;;6239190;28;20089;-81
2021/05/31 00:20:32;;;;;;;6.90;4.68;;;;;;;;;;6213125;28;20418;-78
2021/05/31 00:23:33;;;;;;;5.22;4.22;;;;;;;;;;6233407;28;20124;-81
2021/05/31 00:26:35;;;;;;;6.32;4.07;;;;;;;;;;6239827;28;20053;-81
2021/05/31 00:29:38;;;;;;;7.35;3.97;;;;;;;;;;6233044;28;20153;-82
2021/05/31 00:32:40;;;;;;;6.05;4.63;;;;;;;;;;6214824;28;20511;-77
2021/05/31 00:35:41;;;;;;;8.30;4.78;;;;;;;;;;6238074;28;20160;-79
2021/05/31 00:38:43;;;;;;;6.15;4.45;;;;;;;;;;6248854;28;20042;-81
2021/05/31 00:41:47;;;;;;;7.20;4.50;;;;;;;;;;6236910;28;20396;-81
2021/05/31 00:44:48;;;;;;;6.28;4.28;;;;;;;;;;6239359;28;20459;-80
2021/05/31 00:47:51;;;;;;;6.03;4.07;;;;;;;;;;6237592;28;20186;-78
2021/05/31 00:50:56;;;;;;;6.55;4.18;;;;;;;;;;6237025;28;20117;-78
2021/05/31 00:53:59;;;;;;;5.78;4.40;;;;;;;;;;6220985;28;20509;-78
2021/05/31 00:57:01;;;;;;;6.87;4.83;;;;;;;;;;6239100;28;20560;-81
2021/05/31 01:00:06;;;;;;;7.65;4.32;;;;;;;;;;6238571;28;20046;-80
2021/05/31 01:03:07;;;;;;;7.55;4.65;;;;;;;;;;6239193;28;20040;-81
2021/05/31 01:06:11;;;;;;;6.45;4.60;;;;;;;;;;6221684;28;20417;-81
2021/05/31 01:09:24;;;;;;;7.03;4.32;;;;;;;;;;6209232;28;20415;-80
2021/05/31 01:12:46;;;;;;;6.32;4.55;;;;;;;;;;6195399;28;20117;-80
2021/05/31 01:15:55;;;;;;;8.13;4.80;;;;;;;;;;6196921;28;21096;-80
2021/05/31 01:19:02;;;;;;;8.55;4.93;;;;;;;;;;6209954;28;20042;-81
2021/05/31 01:22:13;;;;;;;6.95;4.03;;;;;;;;;;6221303;28;20053;-79
2021/05/31 01:25:36;;;;;;;7.45;4.30;;;;;;;;;;6237408;28;20037;-79
2021/05/31 01:28:59;;;;;;;5.78;4.20;;;;;;;;;;6245578;28;20091;-80
2021/05/31 01:32:03;;;;;;;8.85;4.38;;;;;;;;;;6242956;28;20076;-80
2021/05/31 01:35:11;;;;;;;6.25;4.35;;;;;;;;;;6244173;28;20042;-81
2021/05/31 01:38:18;;;;;;;7.20;5.10;;;;;;;;;;6224714;28;20511;-80
2021/05/31 01:41:20;;;;;;;5.97;4.50;;;;;;;;;;6227702;28;20046;-81
2021/05/31 01:44:22;;;;;;;5.78;3.90;;;;;;;;;;6221750;28;20157;-80
2021/05/31 01:47:24;;;;;;;5.43;3.55;;;;;;;;;;6219924;28;20052;-80
2021/05/31 01:50:29;;;;;;;6.82;4.68;;;;;;;;;;6220163;28;20352;-81
2021/05/31 01:53:32;;;;;;;6.85;4.50;;;;;;;;;;6222483;28;20048;-80
2021/05/31 01:56:36;;;;;;;5.70;4.53;;;;;;;;;;6244366;28;20038;-81
2021/05/31 01:59:38;;;;;;;6.53;4.55;;;;;;;;;;6244152;28;20052;-80
2021/05/31 02:02:40;;;;;;;5.75;3.92;;;;;;;;;;6259252;28;20414;-80
2021/05/31 02:05:42;;;;;;;6.50;4.72;;;;;;;;;;6195627;28;20100;-80
2021/05/31 02:08:43;;;;;;;7.30;5.10;;;;;;;;;;6204437;28;20046;-81
2021/05/31 02:11:54;;;;;;;6.53;5.00;;;;;;;;;;6238940;28;20133;-80
2021/05/31 02:15:11;;;;;;;6.47;4.55;;;;;;;;;;6218603;28;20384;-79
2021/05/31 02:18:22;;;;;;;7.07;4.90;;;;;;;;;;6224073;28;20491;-80
2021/05/31 02:21:25;;;;;;;5.88;4.22;;;;;;;;;;6244081;28;20052;-81
2021/05/31 02:24:30;;;;;;;6.57;4.47;;;;;;;;;;6243330;28;20044;-80
2021/05/31 02:27:35;;;;;;;6.30;4.28;;;;;;;;;;6242671;28;20042;-80
2021/05/31 02:30:37;;;;;;;7.45;5.00;;;;;;;;;;6269001;28;20041;-80
2021/05/31 02:33:39;;;;;;;6.60;4.63;;;;;;;;;;6248258;28;20041;-80
2021/05/31 02:36:41;;;;;;;7.40;4.93;;;;;;;;;;6242662;28;20079;-81
2021/05/31 02:39:42;;;;;;;6.57;4.22;;;;;;;;;;6254932;28;20083;-80
2021/05/31 02:42:47;;;;;;;6.53;4.50;;;;;;;;;;6243868;28;20049;-80
2021/05/31 02:45:48;;;;;;;7.18;4.90;;;;;;;;;;6244381;28;20396;-80
2021/05/31 02:48:50;;;;;;;7.50;4.68;;;;;;;;;;6227856;28;20042;-80
2021/05/31 02:51:51;;;;;;;7.30;4.93;;;;;;;;;;6218841;28;20056;-80
2021/05/31 02:54:53;;;;;;;8.88;5.00;;;;;;;;;;6217651;28;20045;-80
2021/05/31 02:57:56;;;;;;;7.18;4.97;;;;;;;;;;6217754;28;20563;-80
2021/05/31 03:00:57;;;;;;;9.07;5.23;;;;;;;;;;6218550;28;20046;-80
2021/05/31 03:04:02;;;;;;;7.15;5.07;;;;;;;;;;6232803;28;20452;-79
2021/05/31 03:07:04;;;;;;;7.05;5.20;;;;;;;;;;6218903;28;20038;-82
2021/05/31 03:10:06;;;;;;;7.97;5.03;;;;;;;;;;6224758;28;20042;-81
2021/05/31 03:13:08;;;;;;;7.67;5.57;;;;;;;;;;6209722;28;20776;-80
2021/05/31 03:16:09;;;;;;;7.07;5.03;;;;;;;;;;6195177;28;20038;-81
2021/05/31 03:19:11;;;;;;;8.65;5.07;;;;;;;;;;6194006;28;20047;-80
2021/05/31 03:22:13;;;;;;;6.63;5.07;;;;;;;;;;6198801;28;20124;-81
2021/05/31 03:25:15;;;;;;;7.82;5.28;;;;;;;;;;6219840;28;20038;-81
2021/05/31 03:28:16;;;;;;;6.32;4.60;;;;;;;;;;6226732;28;20133;-81
2021/05/31 03:31:18;;;;;;;7.55;4.78;;;;;;;;;;6216779;28;20415;-81
2021/05/31 03:34:19;;;;;;;6.40;4.72;;;;;;;;;;6231486;28;20042;-81
2021/05/31 03:37:21;;;;;;;6.03;4.60;;;;;;;;;;6254001;28;20041;-81
2021/05/31 03:40:23;;;;;;;8.57;5.03;;;;;;;;;;6251000;28;20033;-80
2021/05/31 03:43:25;;;;;;;7.23;4.87;;;;;;;;;;6253796;28;20037;-81
2021/05/31 03:46:27;;;;;;;10.15;5.65;;;;;;;;;;6255973;28;20506;-82
2021/05/31 03:49:28;;;;;;;9.00;5.80;;;;;;;;;;6223701;28;20057;-81
2021/05/31 03:52:30;;;;;;;7.20;4.90;;;;;;;;;;6231769;28;20037;-81
2021/05/31 03:55:32;;;;;;;8.18;5.05;;;;;;;;;;6236209;28;20418;-82
2021/05/31 03:58:34;;;;;;;9.43;5.70;;;;;;;;;;6240012;28;20041;-80
2021/05/31 04:01:36;;;;;;;8.48;4.97;;;;;;;;;;6240674;28;20179;-80
2021/05/31 04:04:42;;;;;;;6.35;4.82;;;;;;;;;;6230649;28;20041;-81
2021/05/31 04:14:26;;;;;;;7.10;5.18;;;;;;;;;;6265695;28;20693;-82
2021/05/31 04:17:27;;;;;;;7.38;5.00;;;;;;;;;;6262403;28;20091;-80
2021/05/31 04:20:30;;;;;;;6.90;5.00;;;;;;;;;;6246704;28;20101;-80
2021/05/31 04:23:31;;;;;;;8.38;5.22;;;;;;;;;;6242189;28;20087;-80
2021/05/31 04:26:34;;;;;;;10.43;5.78;;;;;;;;;;6238718;28;20041;-81
2021/05/31 04:29:35;;;;;;;9.57;5.32;;;;;;;;;;6239552;28;20195;-80
2021/05/31 04:32:37;;;;;;;9.05;5.88;;;;;;;;;;6223693;28;20048;-80
2021/05/31 04:35:38;;;;;;;5.82;4.60;;;;;;;;;;6197685;28;20046;-80
2021/05/31 04:38:40;;;;;;;7.82;5.15;;;;;;;;;;6224604;28;20041;-80
2021/05/31 04:41:42;;;;;;;9.73;5.35;;;;;;;;;;6264500;28;20506;-81
2021/05/31 04:44:43;;;;;;;7.30;4.97;;;;;;;;;;6264449;28;20049;-81
2021/05/31 04:47:45;;;;;;;11.10;5.20;;;;;;;;;;6255981;28;20055;-81
2021/05/31 04:50:47;;;;;;;11.55;5.68;;;;;;;;;;6264642;28;20056;-81
2021/05/31 04:53:49;;;;;;;10.15;6.05;;;;;;;;;;6258141;28;20471;-81
2021/05/31 04:56:52;;;;;;;8.23;5.75;;;;;;;;;;6240257;28;20037;-81
2021/05/31 04:59:55;;;;;;;11.60;6.05;;;;;;;;;;6253896;28;20152;-80
2021/05/31 05:02:56;;;;;;;11.50;5.68;;;;;;;;;;6248853;28;20124;-81
2021/05/31 05:05:58;;;;;;;8.90;6.03;;;;;;;;;;6254189;28;20041;-81
2021/05/31 05:09:00;;;;;;;8.18;4.95;;;;;;;;;;6236990;28;20065;-81
2021/05/31 05:12:02;;;;;;;8.48;5.43;;;;;;;;;;6232210;28;20087;-81
2021/05/31 05:15:05;;;;;;;8.73;5.30;;;;;;;;;;6238512;28;20100;-81
2021/05/31 05:18:07;;;;;;;8.00;5.18;;;;;;;;;;6253254;28;20045;-81
2021/05/31 05:21:08;;;;;;;10.35;6.45;;;;;;;;;;6212721;28;20050;-80
2021/05/31 05:24:12;;;;;;;9.98;6.35;;;;;;;;;;6215011;28;20211;-80
2021/05/31 05:27:15;;;;;;;8.55;6.15;;;;;;;;;;6212849;28;20042;-82
2021/05/31 05:30:19;;;;;;;10.38;5.85;;;;;;;;;;6193986;28;20507;-80
2021/05/31 05:33:21;;;;;;;9.85;5.90;;;;;;;;;;6211325;28;20176;-79
2021/05/31 05:48:57;;;;;;;7.63;5.15;;;;;;;;;;6219817;28;20038;-81
2021/05/31 05:51:59;;;;;;;9.60;5.32;;;;;;;;;;6215122;28;20038;-81
2021/05/31 05:55:01;;;;;;;8.18;5.53;;;;;;;;;;6215297;28;20049;-81
2021/05/31 05:58:02;;;;;;;8.32;5.60;;;;;;;;;;6218685;28;20029;-82
2021/05/31 06:01:06;;;;;;;9.77;6.10;;;;;;;;;;6218969;28;20037;-81
2021/05/31 06:04:08;;;;;;;;;;;;;;;;;;6218234;28;20038;-81
2021/05/31 06:07:10;;;;;;;10.90;5.63;;;;;;;;;;6232249;28;19928;-81
2021/05/31 06:10:13;;;;;;;8.65;5.07;;;;;;;;;;6198362;28;20042;-80
2021/05/31 06:13:15;;;;;;;14.23;5.90;;;;;;;;;;6217069;28;20041;-80
2021/05/31 06:16:17;;;;;;;11.03;5.70;;;;;;;;;;6216808;28;20037;-81
2021/05/31 06:19:19;;;;;;;12.10;5.82;;;;;;;;;;6229382;28;20046;-80
2021/05/31 06:22:20;;;;;;;7.55;5.10;;;;;;;;;;6240322;28;20140;-82
2021/05/31 06:25:22;;;;;;;11.88;5.90;;;;;;;;;;6222908;28;20046;-80
2021/05/31 06:28:24;;;;;;;8.27;5.32;;;;;;;;;;6218419;28;20168;-81
2021/05/31 06:31:25;;;;;;;9.98;5.20;;;;;;;;;;6231343;28;20049;-80
2021/05/31 06:34:27;;;;;;;8.98;5.28;;;;;;;;;;6232902;28;20049;-81
2021/05/31 06:37:31;;;;;;;7.15;4.72;;;;;;;;;;6217559;28;20042;-80
2021/05/31 06:40:33;;;;;;;10.02;5.22;;;;;;;;;;6214289;28;20049;-81
2021/05/31 06:43:34;;;;;;;8.43;4.43;;;;;;;;;;6224326;28;20052;-82
2021/05/31 06:46:41;;;;;;;7.50;4.75;;;;;;;;;;6203680;28;20046;-81
2021/05/31 06:49:44;;;;;;;7.32;4.88;;;;;;;;;;6216209;28;20038;-82
2021/05/31 06:52:46;;;;;;;8.57;4.53;;;;;;;;;;6215387;28;20132;-82
2021/05/31 06:55:47;;;;;;;7.82;5.00;;;;;;;;;;6234252;28;20614;-81
2021/05/31 06:58:50;;;;;;;10.85;5.20;;;;;;;;;;6223289;28;20200;-82
2021/05/31 07:01:52;;;;;;;7.38;4.97;;;;;;;;;;6225296;28;20048;-81
2021/05/31 07:04:53;;;;;;;9.55;5.03;;;;;;;;;;6213349;28;20038;-82
2021/05/31 07:07:55;;;;;;;4.82;4.25;;;;;;;;;;6215315;28;20125;-80
2021/05/31 07:10:59;;;;;;;6.55;4.28;;;;;;;;;;6244812;28;20050;-81
2021/05/31 07:14:03;;;;;;;7.40;3.95;;;;;;;;;;6211789;28;20041;-82
2021/05/31 07:17:06;;;;;;;7.07;4.25;;;;;;;;;;6240373;28;20128;-81
2021/05/31 07:20:11;;;;;;;6.85;3.75;;;;;;;;;;6216094;28;20152;-81
2021/05/31 07:23:12;;;;;;;4.70;2.85;;;;;;;;;;6197909;28;20049;-81
2021/05/31 07:26:14;;;;;;;5.28;3.05;;;;;;;;;;6215253;28;20446;-81
2021/05/31 07:29:16;;;;;;;7.00;3.30;;;;;;;;;;6215306;28;20038;-80
2021/05/31 07:32:17;;;;;;;4.50;3.10;;;;;;;;;;6213209;28;20042;-81
2021/05/31 07:35:19;;;;;;;4.88;3.15;;;;;;;;;;6213596;28;20410;-81
2021/05/31 07:38:21;;;;;;;5.25;3.60;;;;;;;;;;6214794;28;20180;-79
2021/05/31 07:41:23;;;;;;;4.80;3.67;;;;;;;;;;6240757;28;20502;-78
2021/05/31 07:44:24;;;;;;;6.95;3.50;;;;;;;;;;6239273;28;20048;-80
2021/05/31 07:47:26;;;;;;;5.30;3.65;;;;;;;;;;6236698;28;20041;-80
2021/05/31 07:50:28;;;;;;;4.13;3.47;;;;;;;;;;6214465;28;20041;-82
2021/05/31 07:53:29;;;;;;;5.00;3.65;;;;;;;;;;6203098;28;20503;-81
2021/05/31 07:56:31;;;;;;;4.53;3.67;;;;;;;;;;6221027;28;20572;-81
2021/05/31 07:59:32;;;;;;;4.10;3.50;;;;;;;;;;6212763;28;20050;-81
2021/05/31 08:02:35;;;;;;;5.18;3.72;;;;;;;;;;6206352;28;20132;-80
2021/05/31 08:05:37;;;;;;;5.10;3.90;;;;;;;;;;6208486;28;20732;-81
2021/05/31 08:08:41;;;;;;;5.25;3.58;;;;;;;;;;6218195;28;20080;-80
2021/05/31 08:11:42;;;;;;;5.10;3.92;;;;;;;;;;6237812;28;20045;-80
2021/05/31 08:14:44;;;;;;;4.60;3.90;;;;;;;;;;6239252;28;20049;-80
2021/05/31 08:17:46;;;;;;;5.50;4.07;;;;;;;;;;6196566;28;20424;-79
2021/05/31 08:20:48;;;;;;;4.57;3.50;;;;;;;;;;6188471;28;20046;-80
2021/05/31 08:23:50;;;;;;;5.38;3.97;;;;;;;;;;6212370;28;20046;-79
2021/05/31 08:26:52;;;;;;;4.72;3.85;;;;;;;;;;6215426;28;20674;-80
2021/05/31 08:29:53;;;;;;;6.35;4.15;;;;;;;;;;6217184;28;20033;-80
2021/05/31 08:32:55;;;;;;;4.85;4.20;;;;;;;;;;6231119;28;20088;-80
2021/05/31 08:35:56;;;;;;;6.28;4.13;;;;;;;;;;6239146;28;20155;-80
2021/05/31 08:38:58;;;;;;;6.28;3.92;;;;;;;;;;6232736;28;20049;-80
2021/05/31 08:42:00;;;;;;;4.57;3.50;;;;;;;;;;6214235;28;20045;-80
2021/05/31 08:45:04;;;;;;;4.68;3.83;;;;;;;;;;6216612;28;20050;-79
2021/05/31 08:48:09;;;;;;;6.30;3.85;;;;;;;;;;6235372;28;20156;-80
2021/05/31 08:51:11;;;;;;;7.72;3.90;;;;;;;;;;6213989;28;20038;-80
2021/05/31 08:54:12;;;;;;;4.50;3.60;;;;;;;;;;6248856;28;20055;-80
2021/05/31 08:57:14;;;;;;;4.43;4.00;;;;;;;;;;6264971;28;20051;-81
2021/05/31 09:00:24;;;;;;;5.88;3.72;;;;;;;;;;6264474;28;20037;-80
2021/05/31 09:03:25;;;;;;;4.75;3.75;;;;;;;;;;6254883;28;20038;-80
2021/05/31 09:06:27;;;;;;;5.72;3.75;;;;;;;;;;6238240;28;20124;-80
2021/05/31 09:09:43;;;;;;;5.18;3.60;;;;;;;;;;6249489;28;20045;-79
2021/05/31 09:12:45;;;;;;;6.53;4.13;;;;;;;;;;6264562;28;20098;-80
2021/05/31 09:16:05;;;;;;;4.82;3.65;;;;;;;;;;6264892;28;20055;-79
2021/05/31 09:19:07;;;;;;;4.53;3.78;;;;;;;;;;6262638;28;20414;-79
2021/05/31 09:22:08;;;;;;;5.53;4.03;;;;;;;;;;6262908;28;20159;-81
2021/05/31 09:25:10;;;;;;;4.60;3.35;;;;;;;;;;6246151;28;20053;-80
2021/05/31 09:28:13;;;;;;;5.10;3.50;;;;;;;;;;6239668;28;20056;-80
2021/05/31 09:31:17;;;;;;;4.85;3.80;;;;;;;;;;6242597;28;20119;-79
2021/05/31 09:34:18;;;;;;;6.53;3.80;;;;;;;;;;6241866;28;20065;-80
2021/05/31 09:37:20;;;;;;;4.90;4.00;;;;;;;;;;6259457;28;20045;-79
2021/05/31 09:40:26;;;;;;;4.25;3.30;;;;;;;;;;6241689;28;20172;-79
2021/05/31 09:43:31;;;;;;;4.15;3.75;;;;;;;;;;6244424;28;20038;-79
2021/05/31 09:46:40;;;;;;;8.23;3.58;;;;;;;;;;6243860;28;20142;-80
2021/05/31 09:49:42;;;;;;;4.43;3.40;;;;;;;;;;6242682;28;20053;-78
2021/05/31 09:52:43;;;;;;;3.80;3.38;;;;;;;;;;6243711;28;20059;-81
2021/05/31 09:55:47;;;;;;;5.47;3.70;;;;;;;;;;6243078;28;20176;-79
2021/05/31 09:59:02;;;;;;;4.50;3.33;;;;;;;;;;6240657;28;20041;-78
2021/05/31 10:02:05;;;;;;;5.00;3.47;;;;;;;;;;6218186;28;20046;-80
2021/05/31 10:11:23;;;;;;;3.50;3.03;;;;;;;;;;6217424;28;20041;-80
2021/05/31 10:14:25;;;;;;;3.95;3.22;;;;;;;;;;6218901;28;20058;-80
2021/05/31 10:17:27;;;;;;;5.13;3.15;;;;;;;;;;6232337;28;20133;-79
2021/05/31 10:20:30;;;;;;;5.03;3.40;;;;;;;;;;6272126;28;20124;-80
2021/05/31 10:23:35;;;;;;;3.70;2.70;;;;;;;;;;6263135;28;20113;-80
2021/05/31 10:26:36;;;;;;;3.67;2.53;;;;;;;;;;6256723;28;20045;-80
2021/05/31 10:29:43;;;;;;;7.32;2.83;;;;;;;;;;6241248;28;20053;-80
2021/05/31 10:32:45;;;;;;;4.32;2.95;;;;;;;;;;6241077;28;20720;-80
2021/05/31 10:35:48;;;;;;;;;;;;;;;;;;6243024;28;20049;-81
2021/05/31 10:38:51;;;;;;;3.50;3.20;;;;;;;;;;6241105;28;20362;-80
2021/05/31 10:42:07;;;;;;;5.07;3.53;;;;;;;;;;6239941;28;20048;-80
2021/05/31 10:45:26;;;;;;;3.60;3.30;;;;;;;;;;6256905;28;20056;-79
2021/05/31 10:48:31;;;;;;;3.58;2.85;;;;;;;;;;6225603;28;20038;-80
2021/05/31 10:51:38;;;;;;;3.97;3.33;;;;;;;;;;6216654;28;20045;-80
2021/05/31 10:54:40;;;;;;;4.03;3.28;;;;;;;;;;6241517;28;20051;-80
2021/05/31 10:57:41;;;;;;;3.78;2.97;;;;;;;;;;6266686;28;20418;-80
2021/05/31 11:00:52;;;;;;;4.63;3.30;;;;;;;;;;6263223;28;20057;-81
2021/05/31 11:04:03;;;;;;;4.55;3.22;;;;;;;;;;6241970;28;20048;-81
2021/05/31 11:07:08;;;;;;;4.10;3.50;;;;;;;;;;6258034;28;20045;-81
2021/05/31 11:10:18;;;;;;;4.55;3.33;;;;;;;;;;6230777;28;20041;-81
2021/05/31 11:13:20;;;;;;;3.50;3.20;;;;;;;;;;6241400;28;20120;-81
2021/05/31 11:16:27;;;;;;;4.82;3.67;;;;;;;;;;6247921;28;20044;-79
2021/05/31 11:19:43;;;;;;;3.33;3.03;;;;;;;;;;6204904;28;20054;-79
2021/05/31 11:23:00;;;;;;;3.55;3.10;;;;;;;;;;6197556;28;20054;-79
2021/05/31 11:26:02;;;;;;;4.70;3.60;;;;;;;;;;6194820;28;20046;-78
2021/05/31 11:29:06;;;;;;;3.38;3.08;;;;;;;;;;6197768;28;20048;-79
2021/05/31 11:32:08;;;;;;;6.55;3.13;;;;;;;;;;6198047;28;20048;-78
2021/05/31 11:35:15;;;;;;;5.17;3.37;;;;;;;;;;6209846;28;20503;-77
2021/05/31 11:38:40;;;;;;;4.28;3.40;;;;;;;;;;6197369;28;20818;-77
2021/05/31 11:41:43;;;;;;;4.47;2.92;;;;;;;;;;6197269;28;20121;-78
2021/05/31 11:44:56;;;;;;;4.70;3.00;;;;;;;;;;6208333;28;20130;-78
2021/05/31 11:47:58;;;;;;;;;;;;;;;;;;6203856;28;20041;-78
2021/05/31 11:50:59;;;;;;;3.50;3.20;;;;;;;;;;6227411;28;19922;-77
2021/05/31 11:54:01;;;;;;;5.22;3.22;;;;;;;;;;6218119;28;20041;-78
2021/05/31 11:57:09;;;;;;;3.10;2.80;;;;;;;;;;6237686;28;20491;-78
2021/05/31 12:00:16;;;;;;;3.92;2.70;;;;;;;;;;6237501;28;20747;-78
2021/05/31 12:03:23;;;;;;;3.35;2.80;;;;;;;;;;6234934;28;20044;-78
2021/05/31 12:06:28;;;;;;;3.00;2.75;;;;;;;;;;6237524;28;20037;-77
2021/05/31 12:09:29;;;;;;;4.03;3.00;;;;;;;;;;6235304;28;20483;-78
2021/05/31 12:12:31;;;;;;;3.23;2.93;;;;;;;;;;6237294;28;20124;-77
2021/05/31 12:15:34;;;;;;;2.70;2.50;;;;;;;;;;6237263;28;20547;-79
2021/05/31 12:18:36;;;;;;;3.13;2.40;;;;;;;;;;6235305;28;20041;-78
2021/05/31 12:21:41;;;;;;;4.57;2.72;;;;;;;;;;6236831;28;20184;-78
2021/05/31 12:24:45;;;;;;;3.10;2.80;;;;;;;;;;6223286;28;20038;-78
2021/05/31 12:27:47;;;;;;;3.03;2.72;;;;;;;;;;6212843;28;20073;-78
2021/05/31 12:30:51;;;;;;;3.03;2.83;;;;;;;;;;6212100;28;20057;-78
2021/05/31 12:33:59;;;;;;;4.93;3.00;;;;;;;;;;6222514;28;20399;-79
2021/05/31 12:37:06;;;;;;;3.17;2.55;;;;;;;;;;6237235;28;20071;-78
2021/05/31 12:40:11;;;;;;;3.88;2.78;;;;;;;;;;6233821;28;20175;-78
2021/05/31 12:43:13;;;;;;;3.28;2.55;;;;;;;;;;6235420;28;20103;-79
2021/05/31 12:46:19;;;;;;;3.83;2.80;;;;;;;;;;6229440;28;20045;-79
2021/05/31 12:49:28;;;;;;;3.67;2.70;;;;;;;;;;6235843;28;20495;-77
2021/05/31 12:52:32;;;;;;;3.05;2.70;;;;;;;;;;6236803;28;20072;-78
2021/05/31 12:55:37;;;;;;;3.08;2.72;;;;;;;;;;6234849;28;20414;-78
2021/05/31 12:58:38;;;;;;;3.72;2.90;;;;;;;;;;6237235;28;20033;-78
2021/05/31 13:01:44;;;;;;;2.97;2.55;;;;;;;;;;6237725;28;20037;-77
2021/05/31 13:04:46;;;;;;;2.80;2.50;;;;;;;;;;6234860;28;20046;-78
2021/05/31 13:07:49;;;;;;;4.28;2.60;;;;;;;;;;6222518;28;20169;-81
2021/05/31 13:10:53;;;;;;;2.88;2.40;;;;;;;;;;6206137;28;20050;-81
2021/05/31 13:13:55;;;;;;;2.67;2.40;;;;;;;;;;6230424;28;20415;-80
2021/05/31 13:17:03;;;;;;;3.15;2.80;;;;;;;;;;6230273;28;20478;-79
2021/05/31 13:20:08;;;;;;;3.25;2.95;;;;;;;;;;6235698;28;20041;-79
2021/05/31 13:23:15;;;;;;;3.13;2.67;;;;;;;;;;6240098;28;20045;-80
2021/05/31 13:26:19;;;;;;;3.05;2.75;;;;;;;;;;6265254;28;20049;-79
2021/05/31 13:29:25;;;;;;;4.25;2.83;;;;;;;;;;6263026;28;20502;-80
2021/05/31 13:32:28;;;;;;;5.65;2.75;;;;;;;;;;6257213;28;20511;-78
2021/05/31 13:35:29;;;;;;;5.88;2.90;;;;;;;;;;6240418;28;20076;-80
2021/05/31 13:38:31;;;;;;;2.97;2.50;;;;;;;;;;6240211;28;20045;-81
2021/05/31 13:41:38;;;;;;;2.83;2.47;;;;;;;;;;6239203;28;20132;-80
2021/05/31 13:44:39;;;;;;;3.80;2.58;;;;;;;;;;6220497;28;20270;-80
2021/05/31 13:47:41;;;;;;;2.90;2.70;;;;;;;;;;6237993;28;20048;-81
2021/05/31 13:50:44;;;;;;;;;;;;;;;;;;6237239;28;20041;-80
2021/05/31 13:53:46;;;;;;;2.47;2.28;;;;;;;;;;6238517;28;20294;-80
2021/05/31 13:56:48;;;;;;;4.05;2.50;;;;;;;;;;6236437;28;20118;-79
2021/05/31 13:59:49;;;;;;;3.80;2.88;;;;;;;;;;6211531;28;20426;-80
2021/05/31 14:02:57;;;;;;;4.47;2.40;;;;;;;;;;6232441;28;20614;-79
2021/05/31 14:05:59;;;;;;;2.97;2.33;;;;;;;;;;6238491;28;20415;-81
2021/05/31 14:09:20;;;;;;;3.17;2.43;;;;;;;;;;6237402;28;21070;-80
2021/05/31 14:12:22;;;;;;;3.53;2.33;;;;;;;;;;6240516;28;20120;-78
2021/05/31 14:15:24;;;;;;;2.53;2.33;;;;;;;;;;6239588;28;20132;-80
2021/05/31 14:18:26;;;;;;;2.65;2.45;;;;;;;;;;6239270;28;20060;-79
2021/05/31 14:21:28;;;;;;;2.35;2.15;;;;;;;;;;6244412;28;20059;-80
2021/05/31 14:24:29;;;;;;;2.60;2.40;;;;;;;;;;6223053;28;20042;-80
2021/05/31 14:27:31;;;;;;;2.70;2.50;;;;;;;;;;6194836;28;20133;-81
2021/05/31 14:30:35;;;;;;;3.20;2.60;;;;;;;;;;6215861;28;20042;-80
2021/05/31 14:33:37;;;;;;;3.00;2.53;;;;;;;;;;6212886;28;20038;-81
2021/05/31 14:36:39;;;;;;;4.95;2.50;;;;;;;;;;6237357;28;20405;-81
2021/05/31 14:39:40;;;;;;;3.17;2.70;;;;;;;;;;6261794;28;20047;-79
2021/05/31 14:42:43;;;;;;;2.67;2.35;;;;;;;;;;6262592;28;20047;-81
2021/05/31 14:45:46;;;;;;;4.70;2.50;;;;;;;;;;6216280;28;20136;-78
2021/05/31 14:48:47;;;;;;;3.72;2.42;;;;;;;;;;6241264;28;20070;-81
2021/05/31 14:51:50;;;;;;;2.67;2.47;;;;;;;;;;6243243;28;20056;-80
2021/05/31 14:54:52;;;;;;;3.40;2.30;;;;;;;;;;6228501;28;20050;-82
2021/05/31 14:57:53;;;;;;;6.32;2.50;;;;;;;;;;6218951;28;20399;-80
2021/05/31 15:00:55;;;;;;;3.45;2.85;;;;;;;;;;6217267;28;20092;-81
2021/05/31 15:03:57;;;;;;;3.10;2.70;;;;;;;;;;6229052;28;20049;-79
2021/05/31 15:06:58;;;;;;;3.95;2.80;;;;;;;;;;6226904;28;20044;-82
2021/05/31 15:10:00;;;;;;;2.72;2.50;;;;;;;;;;6215525;28;20041;-81
2021/05/31 15:13:02;;;;;;;3.10;2.50;;;;;;;;;;6218644;28;20046;-82
2021/05/31 15:16:04;;;;;;;2.60;2.40;;;;;;;;;;6215457;28;20045;-81
2021/05/31 15:19:05;;;;;;;3.22;2.50;;;;;;;;;;6203362;28;20499;-79
2021/05/31 15:22:09;;;;;;;2.85;2.50;;;;;;;;;;6210144;28;20510;-78
2021/05/31 15:25:11;;;;;;;9.25;2.55;;;;;;;;;;6227514;28;20047;-77
2021/05/31 15:28:13;;;;;;;3.72;2.60;;;;;;;;;;6220596;28;20037;-77
2021/05/31 15:31:15;;;;;;;2.75;2.55;;;;;;;;;;6219490;28;20073;-77
2021/05/31 15:34:17;;;;;;;4.05;2.63;;;;;;;;;;6234621;28;20095;-79
2021/05/31 15:37:19;;;;;;;3.45;2.50;;;;;;;;;;6243614;28;20052;-77
2021/05/31 15:40:22;;;;;;;1.95;1.85;;;;;;;;;;6239329;28;20041;-79
2021/05/31 15:43:23;;;;;;;3.47;2.45;;;;;;;;;;6244236;28;20046;-78
2021/05/31 15:46:25;;;;;;;3.92;2.35;;;;;;;;;;6236168;28;20044;-77
2021/05/31 15:49:27;;;;;;;2.85;2.00;;;;;;;;;;6213029;28;20050;-79
2021/05/31 15:52:29;;;;;;;2.50;2.30;;;;;;;;;;6216789;28;20402;-77
2021/05/31 15:55:31;;;;;;;2.72;2.53;;;;;;;;;;6233109;28;20490;-79
2021/05/31 15:58:39;;;;;;;3.80;2.50;;;;;;;;;;6190492;28;20042;-79
2021/05/31 16:01:40;;;;;;;3.50;2.22;;;;;;;;;;6243375;28;20101;-78
2021/05/31 16:04:44;;;;;;;2.42;2.22;;;;;;;;;;6206164;28;20050;-77
2021/05/31 16:07:45;;;;;;;2.42;2.22;;;;;;;;;;6199792;28;20042;-79
2021/05/31 16:10:50;;;;;;;3.05;2.50;;;;;;;;;;6209946;28;20041;-78
2021/05/31 16:13:52;;;;;;;2.63;2.30;;;;;;;;;;6213488;28;20041;-77
2021/05/31 16:16:54;;;;;;;3.13;2.20;;;;;;;;;;6209022;28;20053;-79
2021/05/31 16:20:15;;;;;;;2.63;2.22;;;;;;;;;;6190128;28;20227;-80
2021/05/31 16:26:40;;;;;;;;;;;;;;;;;;6196504;28;20049;-79
2021/05/31 16:29:41;;;;;;;2.65;2.38;;;;;;;;;;6189706;28;20008;-80
2021/05/31 16:32:43;;;;;;;4.23;2.23;;;;;;;;;;6192975;28;20050;-80
2021/05/31 16:35:45;;;;;;;2.88;2.35;;;;;;;;;;6199363;28;20440;-80
2021/05/31 16:38:47;;;;;;;2.88;2.55;;;;;;;;;;6197717;28;20491;-79
2021/05/31 16:41:50;;;;;;;4.15;2.70;;;;;;;;;;6211718;28;20631;-78
2021/05/31 16:44:51;;;;;;;3.10;2.38;;;;;;;;;;6213299;28;20053;-79
2021/05/31 16:47:53;;;;;;;4.40;2.77;;;;;;;;;;6223395;28;20045;-79
2021/05/31 16:50:55;;;;;;;3.17;2.50;;;;;;;;;;6238116;28;20071;-77
2021/05/31 16:53:57;;;;;;;4.70;2.70;;;;;;;;;;6227696;28;20053;-79
2021/05/31 16:56:58;;;;;;;2.90;2.35;;;;;;;;;;6239851;28;20053;-78
2021/05/31 17:00:00;;;;;;;3.28;2.28;;;;;;;;;;6198075;28;20396;-79
2021/05/31 17:03:03;;;;;;;3.80;2.53;;;;;;;;;;6192754;28;20109;-77
2021/05/31 17:06:14;;;;;;;;;;;;;;;;;;6188309;28;20129;-78
2021/05/31 17:09:16;;;;;;;2.92;2.40;;;;;;;;;;6206666;28;19921;-77
2021/05/31 17:21:56;;;;;;;3.90;2.38;;;;;;;;;;6193081;28;20057;-79
2021/05/31 17:24:58;;;;;;;3.55;2.80;;;;;;;;;;6265664;28;20045;-78
2021/05/31 17:27:59;;;;;;;2.42;2.22;;;;;;;;;;6233210;28;20048;-78
2021/05/31 17:31:13;;;;;;;4.45;2.55;;;;;;;;;;6232069;28;20073;-78
2021/05/31 17:34:15;;;;;;;4.32;2.50;;;;;;;;;;6208057;28;20062;-77
2021/05/31 17:37:17;;;;;;;2.40;2.20;;;;;;;;;;6194171;28;20046;-79
2021/05/31 17:40:19;;;;;;;3.67;2.00;;;;;;;;;;6220762;28;20042;-78
2021/05/31 17:43:24;;;;;;;4.05;2.30;;;;;;;;;;6217603;28;20044;-79
2021/05/31 17:46:26;;;;;;;2.20;2.00;;;;;;;;;;6231625;28;20046;-78
2021/05/31 17:49:28;;;;;;;2.42;1.92;;;;;;;;;;6222837;28;20139;-78
2021/05/31 17:52:30;;;;;;;2.22;2.00;;;;;;;;;;6250380;28;20050;-79
2021/05/31 17:55:38;;;;;;;2.65;2.20;;;;;;;;;;6255072;28;20053;-78
2021/05/31 17:58:40;;;;;;;3.72;2.30;;;;;;;;;;6246535;28;20044;-78
2021/05/31 18:01:42;;;;;;;2.25;2.05;;;;;;;;;;6244903;28;20264;-78
2021/05/31 18:04:44;;;;;;;3.50;1.90;;;;;;;;;;6219641;28;20053;-79
2021/05/31 18:07:45;;;;;;;3.10;2.05;;;;;;;;;;6211221;28;20052;-78
2021/05/31 18:10:47;;;;;;;2.50;2.25;;;;;;;;;;6241018;28;20056;-78
2021/05/31 18:13:49;;;;;;;2.45;2.25;;;;;;;;;;6244352;28;20045;-77
2021/05/31 18:16:52;;;;;;;3.78;2.13;;;;;;;;;;6235604;28;20056;-77
2021/05/31 18:19:54;;;;;;;2.30;2.10;;;;;;;;;;6253910;28;20049;-78
2021/05/31 18:22:55;;;;;;;2.63;2.10;;;;;;;;;;6246444;28;20509;-77
2021/05/31 18:25:57;;;;;;;3.40;2.25;;;;;;;;;;6245331;28;20049;-78
2021/05/31 18:28:59;;;;;;;3.45;2.38;;;;;;;;;;6244323;28;20048;-78
2021/05/31 18:32:00;;;;;;;2.65;2.33;;;;;;;;;;6244819;28;20135;-78
2021/05/31 18:35:02;;;;;;;3.17;2.30;;;;;;;;;;6230050;28;20099;-77
2021/05/31 18:38:05;;;;;;;3.50;2.03;;;;;;;;;;6215622;28;20045;-76
2021/05/31 18:41:07;;;;;;;4.45;2.00;;;;;;;;;;6215527;28;20045;-77
2021/05/31 18:44:11;;;;;;;2.47;2.20;;;;;;;;;;6221627;28;20111;-79
2021/05/31 18:47:12;;;;;;;2.60;1.88;;;;;;;;;;6213945;28;20046;-79
2021/05/31 18:50:14;;;;;;;3.38;2.10;;;;;;;;;;6240453;28;20050;-77
2021/05/31 18:53:16;;;;;;;2.47;2.00;;;;;;;;;;6236398;28;20799;-78
2021/05/31 18:56:17;;;;;;;4.03;2.20;;;;;;;;;;6239894;28;20054;-77
2021/05/31 18:59:20;;;;;;;2.08;1.90;;;;;;;;;;6222182;28;20124;-78